DW1770 Weather Reports


time (UTC)temp
F
wind
direction
speed
knots
gust
knots
rain 1hr
in
rain 24hr
in
rain mn
in
humidity
%
barometer
mb
20240229053051 36 0.0 0.0 0.00 0.28 0.00 65 1002.5
20240229051553 37 0.0 0.0 0.00 0.28 0.00 67 1002.4
20240229050041 37 0.0 0.0 0.00 0.28 0.00 59 1001.5
20240229044550 38 0.0 0.0 0.00 0.29 0.28 61 1001.1
20240229043053 39 0.0 0.0 0.00 0.29 0.28 62 1000.8
20240229041550 40 0.0 0.0 0.01 0.29 0.28 63 1000.6
20240229040103 42 0.0 0.0 0.01 0.29 0.28 64 999.9
20240229034545 44 0.0 0.0 0.03 0.30 0.28 60 999.0
20240229033047 47 0.0 0.0 0.04 0.30 0.28 56 998.6
20240229031549 50 0.0 0.0 0.03 0.29 0.27 38 997.8
20240229030047 52 0.0 0.0 0.03 0.29 0.27 100 996.4
20240229024551 53 0.0 0.0 0.01 0.27 0.25 100 994.8
20240229023048 53 0.0 0.0 0.00 0.26 0.24 100 994.8
20240229021550 53 0.0 0.0 0.00 0.26 0.24 100 994.7
20240229020046 53 0.0 0.0 0.00 0.26 0.24 100 995.2
20240229014600 53 0.0 0.0 0.00 0.26 0.24 100 995.4
20240229013059 53 0.0 0.0 0.00 0.26 0.24 100 995.4
20240229011611 53 0.0 0.0 0.00 0.26 0.24 100 995.0
20240229010111 53 0.0 0.0 0.00 0.26 0.24 100 994.5
20240229004552 53 0.0 0.0 0.01 0.26 0.24 100 995.0
20240229003056 53 0.0 0.0 0.03 0.26 0.24 100 995.6
20240229001557 53 0.0 0.0 0.05 0.26 0.24 100 995.7
20240229000104 54 0.0 0.0 0.06 0.26 0.24 100 996.8
20240228234609 54 0.0 0.0 0.07 0.25 0.23 100 997.0
20240228233047 54 0.0 0.0 0.05 0.23 0.21 100 997.4
20240228231554 54 0.0 0.0 0.04 0.21 0.19 100 997.5
20240228230047 55 0.0 0.0 0.03 0.20 0.18 100 997.4
20240228224551 55 0.0 0.0 0.01 0.18 0.16 3 997.6
20240228223136 55 0.0 0.0 0.01 0.18 0.16 9 998.0
20240228221543 56 0.0 0.0 0.00 0.17 0.15 18 998.0
20240228220055 56 0.0 0.0 0.00 0.17 0.15 19 998.0
20240228214550 56 0.0 0.0 0.00 0.17 0.15 18 998.2
20240228213107 56 0.0 0.0 0.00 0.17 0.15 16 998.6
20240228211555 56 0.0 0.0 0.00 0.17 0.15 12 998.2
20240228210049 56 0.0 0.0 0.00 0.17 0.15 11 998.5
20240228204551 56 0.0 0.0 0.00 0.17 0.15 7 998.6
20240228203044 56 0.0 0.0 0.00 0.17 0.15 5 999.0
20240228201543 56 0.0 0.0 0.00 0.17 0.15 3 999.0
20240228200043 56 0.0 0.0 0.00 0.17 0.15 2 999.0
20240228194543 56 0.0 0.0 0.00 0.17 0.15 100 998.8
20240228193050 56 0.0 0.0 0.00 0.17 0.15 100 999.2
20240228191542 56 0.0 0.0 0.00 0.17 0.15 100 1000.3
20240228190040 55 0.0 0.0 0.00 0.17 0.15 100 1000.4
20240228184545 55 0.0 0.0 0.01 0.17 0.15 100 1000.5
20240228183053 55 0.0 0.0 0.01 0.17 0.15 100 1001.4
20240228182425 55 0.0 0.0 0.01 0.17 0.15 100 1001.6
20240228174600 55 0.0 0.0 0.00 0.16 0.14 100 1001.6
20240228173104 54 0.0 0.0 0.00 0.16 0.14 100 1002.1
20240228171546 54 0.0 0.0 0.00 0.16 0.14 100 1002.5
20240228170058 54 0.0 0.0 0.00 0.16 0.14 100 1002.7
20240228164552 53 0.0 0.0 0.00 0.16 0.14 100 1002.7
20240228163054 53 0.0 0.0 0.00 0.16 0.14 100 1003.0
20240228161548 53 0.0 0.0 0.00 0.16 0.14 100 1002.9
20240228160050 53 0.0 0.0 0.00 0.16 0.14 100 1003.2
20240228154553 53 0.0 0.0 0.00 0.16 0.14 100 1003.1
20240228153055 53 0.0 0.0 0.00 0.16 0.14 100 1003.2
20240228151559 52 0.0 0.0 0.00 0.16 0.14 100 1003.3
20240228150042 52 0.0 0.0 0.00 0.16 0.14 100 1003.9
20240228144547 52 0.0 0.0 0.00 0.16 0.14 100 1004.4
20240228143045 52 0.0 0.0 0.00 0.16 0.14 100 1004.8
20240228141552 52 0.0 0.0 0.00 0.16 0.14 100 1005.0
20240228140054 52 0.0 0.0 0.01 0.16 0.14 100 1005.2
20240228134544 52 0.0 0.0 0.04 0.16 0.14 100 1005.5
20240228133110 51 0.0 0.0 0.08 0.16 0.14 100 1005.4
20240228131556 51 0.0 0.0 0.11 0.16 0.14 100 1005.6
20240228130050 51 0.0 0.0 0.12 0.15 0.13 100 1006.1
20240228124548 51 0.0 0.0 0.09 0.12 0.10 100 1006.1
20240228123051 51 0.0 0.0 0.05 0.08 0.06 100 1006.7
20240228121542 51 0.0 0.0 0.02 0.05 0.03 100 1006.8
20240228120054 51 0.0 0.0 0.00 0.03 0.01 100 1007.2
20240228114551 51 0.0 0.0 0.00 0.03 0.01 100 1007.2
20240228113051 51 0.0 0.0 0.00 0.03 0.01 100 1007.6
20240228111555 50 0.0 0.0 0.00 0.03 0.01 100 1007.5
20240228110048 50 0.0 0.0 0.00 0.03 0.01 100 1007.4
20240228104546 50 0.0 0.0 0.00 0.03 0.01 100 1007.6
20240228103050 50 0.0 0.0 0.00 0.03 0.01 100 1007.8
20240228101552 50 0.0 0.0 0.00 0.03 0.01 100 1007.9
20240228100043 50 0.0 0.0 0.00 0.03 0.01 100 1008.2
20240228094604 50 0.0 0.0 0.00 0.03 0.01 100 1008.4
20240228093049 50 0.0 0.0 0.00 0.03 0.01 100 1008.5
20240228091553 50 0.0 0.0 0.00 0.03 0.01 100 1008.4
20240228090048 50 0.0 0.0 0.00 0.03 0.01 100 1008.3
20240228084544 50 0.0 0.0 0.00 0.03 0.01 100 1008.5
20240228083058 50 0.0 0.0 0.00 0.03 0.01 100 1008.2
20240228081559 50 0.0 0.0 0.00 0.03 0.01 100 1008.9
20240228080048 51 0.0 0.0 0.00 0.03 0.01 100 1009.0
20240228074601 51 0.0 0.0 0.00 0.03 0.01 100 1008.9
20240228073100 50 0.0 0.0 0.00 0.03 0.01 100 1008.9
20240228071556 50 0.0 0.0 0.00 0.03 0.01 100 1009.0
20240228070048 50 0.0 0.0 0.01 0.03 0.01 100 1009.3
20240228064544 50 0.0 0.0 0.01 0.03 0.01 100 1009.3
20240228063044 50 0.0 0.0 0.01 0.03 0.01 100 1009.3
20240228061541 50 0.0 0.0 0.01 0.03 0.01 100 1009.5
20240228060046 50 0.0 0.0 0.00 0.02 0.00 100 1009.5
20240228054550 50 0.0 0.0 0.00 0.02 0.00 100 1009.5